Time;durP1;ratioP1;P1;durP2;ratioP2;P2;SDS_P1;SDS_P2;PMS_P1;PMS_P2;Temp;Humidity;BMP_temperature;BMP_pressure;BME280_temperature;BME280_humidity;BME280_pressure;Samples;Min_cycle;Max_cycle;Signal;HPM_P1;HPM_P2
2023/05/07 00:00:34;;;;;;;10.27;7.07;;;14.00;99.90;;;;;;5034563;28;20196;-51
2023/05/07 00:03:00;;;;;;;10.17;7.83;;;14.00;99.90;;;;;;5034566;28;20223;-52
2023/05/07 00:05:25;;;;;;;11.20;8.70;;;14.00;99.90;;;;;;5034591;28;20537;-52
2023/05/07 00:07:52;;;;;;;9.43;8.20;;;14.00;99.90;;;;;;5034553;28;20227;-51
2023/05/07 00:10:18;;;;;;;14.53;9.47;;;14.00;99.90;;;;;;5034776;28;20185;-50
2023/05/07 00:12:44;;;;;;;11.80;9.17;;;14.10;99.90;;;;;;5016670;28;20205;-50
2023/05/07 00:15:10;;;;;;;14.67;8.60;;;14.00;99.90;;;;;;5034620;28;20183;-51
2023/05/07 00:17:36;;;;;;;12.47;9.00;;;14.00;99.90;;;;;;5034748;28;20175;-50
2023/05/07 00:20:04;;;;;;;10.80;8.40;;;14.00;99.90;;;;;;5033735;28;20204;-50
2023/05/07 00:22:30;;;;;;;9.77;8.77;;;14.00;99.90;;;;;;5034259;28;20257;-51
2023/05/07 00:24:56;;;;;;;11.57;7.93;;;14.00;99.90;;;;;;5034233;28;20177;-50
2023/05/07 00:27:22;;;;;;;10.70;8.77;;;14.00;99.90;;;;;;5016511;28;20177;-45
2023/05/07 00:29:48;;;;;;;9.97;8.60;;;14.00;99.90;;;;;;5034746;28;20630;-45
2023/05/07 00:32:13;;;;;;;10.00;8.97;;;14.00;99.90;;;;;;5033989;28;20200;-44
2023/05/07 00:34:39;;;;;;;10.97;8.67;;;14.10;99.90;;;;;;5034076;28;20180;-45
2023/05/07 00:37:07;;;;;;;12.03;8.70;;;14.10;99.90;;;;;;5034557;28;20205;-46
2023/05/07 00:39:33;;;;;;;9.27;8.07;;;14.10;99.90;;;;;;5038176;28;20173;-46
2023/05/07 00:41:59;;;;;;;8.57;7.67;;;14.10;99.90;;;;;;5047581;28;20223;-46
2023/05/07 00:44:24;;;;;;;8.90;7.70;;;14.00;99.90;;;;;;5044062;28;20173;-45
2023/05/07 00:46:51;;;;;;;9.83;7.87;;;14.00;99.90;;;;;;5035239;28;20184;-45
2023/05/07 00:49:17;;;;;;;10.30;7.60;;;14.00;99.90;;;;;;5017216;28;20195;-45
2023/05/07 00:51:43;;;;;;;10.30;8.33;;;14.00;99.90;;;;;;5033985;28;20173;-45
2023/05/07 00:54:09;;;;;;;8.53;7.13;;;14.00;99.90;;;;;;5034576;28;20607;-44
2023/05/07 00:56:36;;;;;;;8.37;6.70;;;14.00;99.90;;;;;;5034023;28;20231;-46
2023/05/07 00:59:02;;;;;;;9.57;7.40;;;14.00;99.90;;;;;;5033783;28;20184;-45
2023/05/07 01:01:28;;;;;;;7.67;6.93;;;14.00;99.90;;;;;;5034207;28;20219;-44
2023/05/07 01:03:54;;;;;;;11.73;8.33;;;13.90;99.90;;;;;;5034090;28;20669;-46
2023/05/07 01:06:21;;;;;;;8.77;7.67;;;14.00;99.90;;;;;;5033909;28;20195;-42
2023/05/07 01:08:48;;;;;;;8.20;7.17;;;14.00;99.90;;;;;;5034339;28;20609;-45
2023/05/07 01:11:14;;;;;;;8.43;7.43;;;14.00;99.90;;;;;;5033523;28;20672;-44
2023/05/07 01:13:41;;;;;;;9.10;6.60;;;13.90;99.90;;;;;;5033397;28;20203;-44
2023/05/07 01:16:08;;;;;;;7.83;7.03;;;13.90;99.90;;;;;;5033910;28;20191;-45
2023/05/07 01:18:33;;;;;;;9.20;7.17;;;13.90;99.90;;;;;;5034012;28;20188;-44
2023/05/07 01:21:03;;;;;;;9.00;7.63;;;13.90;99.90;;;;;;5033977;28;20227;-44
2023/05/07 01:23:30;;;;;;;9.93;7.27;;;13.90;99.90;;;;;;5033948;28;20196;-43
2023/05/07 01:25:56;;;;;;;6.80;6.00;;;13.90;99.90;;;;;;5033347;28;20179;-44
2023/05/07 01:28:22;;;;;;;7.57;6.87;;;13.90;99.90;;;;;;5033549;28;20197;-45
2023/05/07 01:31:02;;;;;;;8.40;6.67;;;13.90;99.90;;;;;;5033260;28;20191;-45
2023/05/07 01:33:31;;;;;;;7.47;6.73;;;13.80;99.90;;;;;;5033449;28;20215;-45
2023/05/07 01:36:00;;;;;;;9.57;6.97;;;13.90;99.90;;;;;;5033513;28;20218;-47
2023/05/07 01:38:26;;;;;;;9.17;6.83;;;13.80;99.90;;;;;;5033386;28;20235;-45
2023/05/07 01:40:53;;;;;;;7.97;6.80;;;13.80;99.90;;;;;;5033275;28;20255;-45
2023/05/07 01:43:19;;;;;;;7.20;6.50;;;13.80;99.90;;;;;;5033287;28;20201;-45
2023/05/07 01:45:45;;;;;;;13.50;6.80;;;13.80;99.90;;;;;;5033297;28;20214;-47
2023/05/07 01:48:12;;;;;;;7.77;6.57;;;13.80;99.90;;;;;;5033320;28;20203;-45
2023/05/07 01:50:39;;;;;;;7.50;6.80;;;13.80;99.90;;;;;;5033435;28;20273;-45
2023/05/07 01:53:04;;;;;;;8.73;6.53;;;13.70;99.90;;;;;;5033768;28;20208;-46
2023/05/07 01:55:30;;;;;;;10.97;7.13;;;13.70;99.90;;;;;;5033944;28;20540;-47
2023/05/07 01:57:56;;;;;;;9.23;6.67;;;13.70;99.90;;;;;;5033191;28;20260;-45
2023/05/07 02:00:22;;;;;;;7.60;6.43;;;13.70;99.90;;;;;;5033232;28;20196;-46
2023/05/07 02:02:47;;;;;;;9.80;6.53;;;13.70;99.90;;;;;;5033217;28;20208;-47
2023/05/07 02:05:13;;;;;;;8.17;7.27;;;13.60;99.90;;;;;;5033580;28;20211;-46
2023/05/07 02:07:38;;;;;;;11.80;8.30;;;13.60;99.90;;;;;;5033203;28;20661;-46
2023/05/07 02:10:04;;;;;;;15.03;8.23;;;13.60;99.90;;;;;;5033098;28;20183;-45
2023/05/07 02:12:30;;;;;;;13.73;9.00;;;13.50;99.90;;;;;;5032824;28;20196;-46
2023/05/07 02:14:56;;;;;;;12.83;9.77;;;13.50;99.90;;;;;;5033205;28;20187;-45
2023/05/07 02:17:21;;;;;;;12.83;8.90;;;13.50;99.90;;;;;;5033189;28;20181;-47
2023/05/07 02:19:47;;;;;;;15.90;9.47;;;13.50;99.90;;;;;;5033152;28;20208;-44
2023/05/07 02:22:12;;;;;;;15.70;9.80;;;13.40;99.90;;;;;;5033218;28;20718;-46
2023/05/07 02:24:38;;;;;;;13.87;10.00;;;13.40;99.90;;;;;;5033907;28;20185;-44
2023/05/07 02:27:04;;;;;;;14.33;9.70;;;13.40;99.90;;;;;;5032737;28;20192;-45
2023/05/07 02:29:29;;;;;;;14.73;9.50;;;13.40;99.90;;;;;;5032670;28;20262;-43
2023/05/07 02:31:55;;;;;;;14.27;9.97;;;13.30;99.90;;;;;;5032638;28;20218;-44
2023/05/07 02:34:21;;;;;;;13.80;9.63;;;13.30;99.90;;;;;;5032634;28;20717;-43
2023/05/07 02:36:46;;;;;;;13.30;9.67;;;13.30;99.90;;;;;;5033003;28;20178;-44
2023/05/07 02:39:13;;;;;;;13.17;9.53;;;13.20;99.90;;;;;;5014996;28;20174;-45
2023/05/07 02:41:38;;;;;;;13.43;9.53;;;13.20;99.90;;;;;;5033070;28;20205;-46
2023/05/07 02:44:04;;;;;;;14.43;9.17;;;13.10;99.90;;;;;;5034918;28;20196;-44
2023/05/07 02:46:30;;;;;;;16.53;10.50;;;13.10;99.90;;;;;;5036557;28;20179;-45
2023/05/07 02:48:55;;;;;;;14.77;10.03;;;13.10;99.90;;;;;;5036027;28;20661;-45
2023/05/07 02:51:22;;;;;;;15.70;10.07;;;13.10;99.90;;;;;;5036074;28;20198;-44
2023/05/07 02:53:48;;;;;;;12.83;9.80;;;13.10;99.90;;;;;;5035918;28;20313;-45
2023/05/07 02:56:14;;;;;;;12.20;9.50;;;13.10;99.90;;;;;;5035930;28;20216;-44
2023/05/07 02:58:40;;;;;;;15.23;10.37;;;13.10;99.90;;;;;;5035933;28;20185;-46
2023/05/07 03:01:06;;;;;;;15.93;9.80;;;13.10;99.90;;;;;;5035816;28;20202;-45
2023/05/07 03:03:31;;;;;;;17.63;11.03;;;13.10;99.90;;;;;;5036201;28;20210;-45
2023/05/07 03:05:57;;;;;;;14.27;9.90;;;13.10;99.90;;;;;;5035821;28;20177;-44
2023/05/07 03:08:23;;;;;;;15.50;10.60;;;13.10;99.90;;;;;;5035784;28;20174;-44
2023/05/07 03:10:49;;;;;;;15.23;10.50;;;13.10;99.90;;;;;;5035728;28;20630;-45
2023/05/07 03:13:15;;;;;;;15.87;10.80;;;13.10;99.90;;;;;;5035676;28;20200;-44
2023/05/07 03:15:40;;;;;;;14.30;10.07;;;13.00;99.90;;;;;;5035882;28;20643;-42
2023/05/07 03:18:06;;;;;;;16.37;10.47;;;13.00;99.90;;;;;;5035899;28;20190;-46
2023/05/07 03:20:32;;;;;;;18.93;11.77;;;13.00;99.90;;;;;;5035795;28;20212;-47
2023/05/07 03:22:57;;;;;;;18.57;12.03;;;12.90;99.90;;;;;;5035704;28;20271;-43
2023/05/07 03:25:23;;;;;;;16.67;11.93;;;12.90;99.90;;;;;;5035510;28;20177;-45
2023/05/07 03:27:49;;;;;;;16.77;12.33;;;12.90;99.90;;;;;;5035798;28;20607;-44
2023/05/07 03:30:15;;;;;;;16.17;11.33;;;12.90;99.90;;;;;;5035713;28;20185;-47
2023/05/07 03:32:40;;;;;;;18.87;13.10;;;12.80;99.90;;;;;;5035238;28;20551;-46
2023/05/07 03:35:06;;;;;;;16.43;11.27;;;12.80;99.90;;;;;;5035339;28;20208;-44
2023/05/07 03:37:32;;;;;;;20.30;11.27;;;12.80;99.90;;;;;;5035430;28;20213;-45
2023/05/07 03:39:58;;;;;;;16.53;11.60;;;12.80;99.90;;;;;;5035173;28;20274;-45
2023/05/07 03:42:23;;;;;;;15.87;11.33;;;12.80;99.90;;;;;;5035003;28;20200;-45
2023/05/07 03:44:49;;;;;;;15.30;10.70;;;12.80;99.90;;;;;;5035096;28;20269;-45
2023/05/07 03:47:15;;;;;;;15.13;10.90;;;12.70;99.90;;;;;;5000831;28;20652;-44
2023/05/07 03:49:40;;;;;;;17.23;10.50;;;12.80;99.90;;;;;;5035151;28;20185;-45
2023/05/07 03:52:06;;;;;;;15.97;10.90;;;12.70;99.90;;;;;;5035144;28;20547;-46
2023/05/07 03:54:32;;;;;;;20.43;11.63;;;12.70;99.90;;;;;;5033831;28;20181;-45
2023/05/07 03:56:57;;;;;;;22.50;10.63;;;12.80;99.90;;;;;;5035134;28;20181;-43
2023/05/07 03:59:23;;;;;;;16.23;11.43;;;12.80;99.90;;;;;;5034853;28;20185;-45
2023/05/07 04:01:49;;;;;;;16.67;11.23;;;12.70;99.90;;;;;;5034802;28;20200;-46
2023/05/07 04:04:15;;;;;;;17.83;10.53;;;12.70;99.90;;;;;;5039120;28;20250;-46
2023/05/07 04:06:41;;;;;;;15.27;11.00;;;12.70;99.90;;;;;;5046952;28;20177;-45
2023/05/07 04:09:07;;;;;;;16.40;11.63;;;12.70;99.90;;;;;;5040641;28;20195;-46
2023/05/07 04:11:33;;;;;;;15.40;11.93;;;12.70;99.90;;;;;;5017854;28;20562;-46
2023/05/07 04:13:58;;;;;;;16.40;11.17;;;12.70;99.90;;;;;;5034684;28;20200;-43
2023/05/07 04:16:24;;;;;;;16.83;11.57;;;12.70;99.90;;;;;;5034894;28;20688;-46
2023/05/07 04:18:50;;;;;;;15.43;11.93;;;12.70;99.90;;;;;;5035153;28;20185;-46
2023/05/07 04:21:16;;;;;;;19.80;11.70;;;12.80;99.90;;;;;;5034333;28;20280;-45
2023/05/07 04:23:42;;;;;;;19.70;12.63;;;12.80;99.90;;;;;;5034237;28;20200;-44
2023/05/07 04:26:07;;;;;;;18.73;12.07;;;12.80;99.90;;;;;;5034649;28;20185;-44
2023/05/07 04:28:34;;;;;;;18.07;11.67;;;12.80;99.90;;;;;;5034523;28;20197;-45
2023/05/07 04:31:00;;;;;;;17.53;11.87;;;12.80;99.90;;;;;;5034342;28;20533;-46
2023/05/07 04:33:25;;;;;;;20.73;13.03;;;12.90;99.90;;;;;;5034299;28;20258;-46
2023/05/07 04:35:51;;;;;;;23.00;14.13;;;12.80;99.90;;;;;;5034388;28;20260;-45
2023/05/07 04:38:18;;;;;;;21.40;12.57;;;12.90;99.90;;;;;;5034878;28;20266;-46
2023/05/07 04:40:44;;;;;;;17.70;12.63;;;12.90;99.90;;;;;;5034530;28;20705;-44
2023/05/07 04:43:10;;;;;;;18.53;13.63;;;12.90;99.90;;;;;;5034949;28;20223;-46
2023/05/07 04:45:36;;;;;;;23.23;13.30;;;13.00;99.90;;;;;;5034393;28;20641;-44
2023/05/07 04:48:02;;;;;;;16.93;12.57;;;13.00;99.90;;;;;;5034044;28;20250;-45
2023/05/07 04:50:27;;;;;;;17.37;12.47;;;13.10;99.90;;;;;;5033904;28;20596;-43
2023/05/07 04:52:53;;;;;;;18.30;12.27;;;13.00;99.90;;;;;;5034072;28;20223;-44
2023/05/07 04:55:18;;;;;;;20.37;13.47;;;13.10;99.90;;;;;;5016242;28;20180;-47
2023/05/07 04:57:45;;;;;;;16.87;12.33;;;13.20;99.90;;;;;;5033746;28;20585;-45
2023/05/07 05:00:14;;;;;;;21.47;12.83;;;13.20;99.90;;;;;;5033917;28;20231;-46
2023/05/07 05:02:40;;;;;;;19.07;12.23;;;13.30;99.90;;;;;;5033845;28;20200;-45
2023/05/07 05:05:06;;;;;;;20.10;11.43;;;13.30;99.90;;;;;;5033661;28;20177;-43
2023/05/07 05:07:32;;;;;;;17.83;10.30;;;13.40;99.90;;;;;;5033676;28;20652;-46
2023/05/07 05:09:57;;;;;;;14.13;10.17;;;13.40;99.90;;;;;;5033763;28;20185;-46
2023/05/07 05:12:23;;;;;;;18.07;10.30;;;13.40;99.90;;;;;;5033726;28;20568;-44
2023/05/07 05:14:48;;;;;;;14.27;10.10;;;13.50;99.90;;;;;;5033718;28;20255;-41
2023/05/07 05:17:14;;;;;;;16.47;10.33;;;13.50;99.90;;;;;;5033512;28;20665;-45
2023/05/07 05:19:40;;;;;;;14.93;9.67;;;13.60;99.90;;;;;;5033418;28;20185;-43
2023/05/07 05:22:05;;;;;;;15.80;9.43;;;13.60;99.90;;;;;;5033325;28;20201;-44
2023/05/07 05:24:31;;;;;;;12.80;9.00;;;13.60;99.90;;;;;;5033607;28;20539;-45
2023/05/07 05:26:57;;;;;;;12.53;9.20;;;13.70;99.90;;;;;;5033297;28;20177;-44
2023/05/07 05:29:22;;;;;;;14.03;9.23;;;13.70;99.90;;;;;;5033672;28;20239;-44
2023/05/07 05:31:48;;;;;;;16.07;10.17;;;13.70;99.90;;;;;;5033222;28;20263;-44
2023/05/07 05:34:14;;;;;;;18.70;9.50;;;13.80;99.90;;;;;;5033673;28;20256;-46
2023/05/07 05:36:39;;;;;;;12.80;8.97;;;13.80;99.90;;;;;;5015496;28;20181;-45
2023/05/07 05:39:05;;;;;;;15.13;9.33;;;13.80;99.90;;;;;;5033474;28;20181;-44
2023/05/07 05:41:31;;;;;;;17.27;10.00;;;13.80;99.90;;;;;;5033082;28;20244;-44
2023/05/07 05:43:57;;;;;;;14.27;8.87;;;13.90;99.90;;;;;;5033138;28;20196;-46
2023/05/07 05:46:22;;;;;;;13.83;9.87;;;13.90;99.90;;;;;;5033161;28;20252;-45
2023/05/07 05:48:48;;;;;;;14.67;9.03;;;14.00;99.90;;;;;;5033060;28;20212;-45
2023/05/07 05:51:13;;;;;;;15.53;9.50;;;14.10;99.90;;;;;;5033094;28;20612;-44
2023/05/07 05:53:39;;;;;;;17.80;8.80;;;14.10;99.90;;;;;;5033019;28;20196;-44
2023/05/07 05:56:05;;;;;;;14.30;8.47;;;14.20;99.90;;;;;;5015405;28;20178;-45
2023/05/07 05:58:31;;;;;;;12.43;8.57;;;14.30;99.90;;;;;;5032995;28;20550;-45
2023/05/07 06:00:56;;;;;;;10.80;8.53;;;14.40;99.90;;;;;;5033263;28;20200;-44
2023/05/07 06:03:22;;;;;;;10.80;8.20;;;14.50;99.90;;;;;;5015240;28;20201;-44
2023/05/07 06:05:47;;;;;;;11.57;8.57;;;14.60;99.90;;;;;;5033264;28;20205;-44
2023/05/07 06:08:13;;;;;;;12.33;8.70;;;14.70;99.90;;;;;;5032977;28;20271;-44
2023/05/07 06:10:39;;;;;;;13.00;9.23;;;14.90;99.90;;;;;;5033182;28;20180;-47
2023/05/07 06:13:05;;;;;;;11.90;7.97;;;15.10;99.90;;;;;;5032914;28;20277;-45
2023/05/07 06:15:30;;;;;;;11.27;8.30;;;15.30;99.90;;;;;;5033186;28;20177;-44
2023/05/07 06:17:57;;;;;;;13.30;8.50;;;15.40;99.90;;;;;;5033747;28;20212;-44
2023/05/07 06:20:23;;;;;;;10.90;8.37;;;15.50;99.90;;;;;;5036551;28;20192;-45
2023/05/07 06:22:48;;;;;;;12.03;7.50;;;15.50;99.90;;;;;;5036442;28;20208;-45
2023/05/07 06:25:14;;;;;;;10.83;7.07;;;15.60;99.90;;;;;;5036849;28;20173;-45
2023/05/07 06:27:40;;;;;;;11.10;8.10;;;15.60;99.90;;;;;;5036757;28;20215;-45
2023/05/07 06:30:06;;;;;;;11.83;7.80;;;15.70;99.90;;;;;;5037120;28;20222;-45
2023/05/07 06:32:32;;;;;;;9.00;6.97;;;15.90;99.90;;;;;;5036641;28;20677;-47
2023/05/07 06:34:58;;;;;;;8.80;6.93;;;16.10;99.90;;;;;;5036374;28;20224;-45
2023/05/07 06:37:23;;;;;;;9.33;7.33;;;16.40;99.90;;;;;;5036935;28;20217;-44
2023/05/07 06:39:49;;;;;;;9.00;7.13;;;16.50;99.90;;;;;;5037249;28;20185;-44
2023/05/07 06:42:15;;;;;;;9.13;6.80;;;16.60;99.90;;;;;;5036458;28;20259;-46
2023/05/07 06:44:40;;;;;;;9.30;6.67;;;16.80;99.90;;;;;;5036820;28;20168;-44
2023/05/07 06:47:06;;;;;;;9.23;6.50;;;16.90;99.90;;;;;;5036510;28;20180;-43
2023/05/07 06:49:32;;;;;;;7.77;6.17;;;16.90;99.90;;;;;;5036080;28;20246;-44
2023/05/07 06:51:58;;;;;;;10.80;7.27;;;17.00;99.90;;;;;;5036010;28;20189;-44
2023/05/07 06:54:23;;;;;;;8.90;6.73;;;17.10;99.90;;;;;;5036602;28;20181;-46
2023/05/07 06:56:49;;;;;;;8.87;6.50;;;17.20;99.90;;;;;;5036314;28;20177;-43
2023/05/07 06:59:15;;;;;;;9.53;6.97;;;17.30;99.90;;;;;;5035922;28;20177;-44
2023/05/07 07:01:41;;;;;;;8.40;6.17;;;17.40;99.90;;;;;;5018102;28;20627;-45
2023/05/07 07:04:06;;;;;;;8.10;6.03;;;17.50;99.90;;;;;;5036058;28;20200;-44
2023/05/07 07:06:32;;;;;;;7.07;5.50;;;17.60;99.90;;;;;;5035880;28;20177;-44
2023/05/07 07:08:58;;;;;;;11.33;5.17;;;17.70;99.90;;;;;;5036386;28;20227;-45
2023/05/07 07:11:24;;;;;;;8.87;5.20;;;17.80;99.90;;;;;;5036058;28;20189;-45
2023/05/07 07:13:50;;;;;;;8.27;5.20;;;18.00;99.90;;;;;;5035706;28;20239;-46
2023/05/07 07:16:16;;;;;;;7.50;5.50;;;18.10;99.90;;;;;;5035647;28;20169;-45
2023/05/07 07:18:42;;;;;;;6.53;5.00;;;18.20;99.90;;;;;;5035544;28;20231;-45
2023/05/07 07:21:08;;;;;;;5.90;5.17;;;18.30;99.90;;;;;;5035522;28;20201;-45
2023/05/07 07:23:33;;;;;;;5.73;5.13;;;18.40;99.90;;;;;;5035687;28;20197;-46
2023/05/07 07:25:59;;;;;;;6.27;5.47;;;18.50;99.90;;;;;;5036031;28;20181;-46
2023/05/07 07:28:24;;;;;;;7.63;4.87;;;18.60;99.90;;;;;;5035531;28;20256;-45
2023/05/07 07:30:50;;;;;;;7.10;5.13;;;18.60;99.90;;;;;;5017746;28;20177;-45
2023/05/07 07:33:16;;;;;;;6.53;4.37;;;18.70;99.90;;;;;;5020060;28;20220;-44
2023/05/07 07:35:42;;;;;;;6.30;4.50;;;18.80;99.90;;;;;;5042886;28;20177;-45
2023/05/07 07:38:08;;;;;;;5.33;4.67;;;18.80;99.90;;;;;;5042540;28;20188;-46
2023/05/07 07:40:36;;;;;;;6.47;4.80;;;19.00;99.90;;;;;;5035684;28;20205;-45
2023/05/07 07:43:02;;;;;;;6.40;5.17;;;19.00;99.90;;;;;;5035454;28;20197;-45
2023/05/07 07:45:28;;;;;;;6.77;4.30;;;19.10;99.90;;;;;;5035571;28;20169;-46
2023/05/07 07:47:53;;;;;;;7.37;4.20;;;19.10;99.90;;;;;;5035204;28;20192;-52
2023/05/07 07:50:19;;;;;;;5.90;4.03;;;19.20;99.90;;;;;;5035840;28;20176;-52
2023/05/07 07:52:45;;;;;;;5.47;2.80;;;19.30;99.90;;;;;;5035040;28;20196;-53
2023/05/07 07:55:11;;;;;;;4.90;3.10;;;19.30;99.90;;;;;;5035287;28;20223;-52
2023/05/07 07:57:37;;;;;;;4.80;3.07;;;19.40;99.90;;;;;;5034865;28;20211;-51
2023/05/07 08:00:03;;;;;;;3.97;3.20;;;19.50;99.90;;;;;;5035045;28;20204;-53
2023/05/07 08:02:29;;;;;;;10.07;3.40;;;19.70;99.90;;;;;;5035267;28;20201;-52
2023/05/07 08:04:55;;;;;;;4.93;3.13;;;19.70;99.90;;;;;;5035064;28;20184;-52
2023/05/07 08:07:22;;;;;;;2.63;2.37;;;19.80;99.90;;;;;;5034947;28;20216;-52
2023/05/07 08:09:48;;;;;;;3.50;2.97;;;19.80;99.90;;;;;;5034633;28;20191;-51
2023/05/07 08:12:13;;;;;;;3.77;2.33;;;19.90;99.90;;;;;;5034485;28;20669;-53
2023/05/07 08:14:39;;;;;;;4.13;2.90;;;19.90;99.90;;;;;;5016856;28;20177;-51
2023/05/07 08:17:05;;;;;;;4.30;2.90;;;20.00;99.90;;;;;;5034718;28;20276;-52
2023/05/07 08:19:30;;;;;;;3.57;2.57;;;20.20;99.90;;;;;;5034423;28;20177;-51
2023/05/07 08:21:56;;;;;;;3.93;2.03;;;20.40;99.90;;;;;;5034352;28;20243;-51
2023/05/07 08:24:21;;;;;;;3.00;2.30;;;20.60;99.90;;;;;;5034326;28;20615;-51
2023/05/07 08:26:47;;;;;;;3.93;2.40;;;20.80;99.90;;;;;;5034298;28;20223;-51
2023/05/07 08:29:12;;;;;;;2.63;2.17;;;21.00;99.90;;;;;;5034243;28;20169;-52
2023/05/07 08:31:39;;;;;;;3.20;2.27;;;21.20;99.90;;;;;;5034731;28;20184;-52
2023/05/07 08:34:05;;;;;;;6.37;2.30;;;21.30;99.90;;;;;;5034396;28;20200;-52
2023/05/07 08:36:30;;;;;;;5.53;2.23;;;21.40;99.90;;;;;;5034330;28;20239;-51
2023/05/07 08:38:56;;;;;;;2.87;1.83;;;21.40;99.90;;;;;;5034388;28;20242;-53
2023/05/07 08:41:22;;;;;;;2.93;1.77;;;21.50;99.90;;;;;;5033597;28;20231;-52
2023/05/07 08:43:50;;;;;;;4.57;2.10;;;21.50;99.90;;;;;;5033986;28;20200;-53
2023/05/07 08:46:21;;;;;;;1.83;1.50;;;21.50;99.90;;;;;;5033908;28;20173;-52
2023/05/07 08:48:51;;;;;;;3.00;1.83;;;21.50;99.90;;;;;;5033851;28;20197;-52
2023/05/07 08:51:19;;;;;;;2.80;1.40;;;21.60;99.90;;;;;;5033931;28;20545;-52
2023/05/07 08:53:48;;;;;;;1.80;1.70;;;21.70;99.90;;;;;;5033740;28;20280;-52
2023/05/07 08:56:16;;;;;;;2.63;1.73;;;21.60;99.90;;;;;;5033652;28;20244;-53
2023/05/07 08:58:43;;;;;;;1.90;1.40;;;21.60;99.90;;;;;;5033660;28;20188;-52
2023/05/07 09:01:12;;;;;;;3.17;2.10;;;21.80;99.90;;;;;;5033673;28;20205;-52
2023/05/07 09:03:39;;;;;;;5.83;1.67;;;21.80;99.90;;;;;;5033581;28;20723;-53
2023/05/07 09:06:04;;;;;;;3.27;2.20;;;22.00;99.90;;;;;;5033696;28;20185;-52
2023/05/07 09:08:32;;;;;;;4.97;2.07;;;22.20;99.90;;;;;;5034173;28;20693;-50
2023/05/07 09:10:57;;;;;;;2.47;2.00;;;22.30;99.90;;;;;;5033825;28;20211;-52
2023/05/07 09:13:23;;;;;;;2.60;2.00;;;22.40;99.90;;;;;;5033439;28;20205;-52
2023/05/07 09:15:49;;;;;;;3.50;2.37;;;22.60;99.90;;;;;;5033836;28;20176;-52
2023/05/07 09:18:15;;;;;;;2.83;2.03;;;22.80;99.90;;;;;;5033755;28;20185;-52
2023/05/07 09:20:40;;;;;;;2.40;2.10;;;22.90;99.90;;;;;;5033599;28;20278;-52
2023/05/07 09:23:07;;;;;;;3.17;1.90;;;23.10;99.90;;;;;;5033735;28;20670;-51
2023/05/07 09:25:34;;;;;;;3.23;2.00;;;23.20;99.90;;;;;;5033662;28;20168;-52
2023/05/07 09:28:01;;;;;;;5.83;1.97;;;23.40;99.90;;;;;;5033626;28;20180;-52
2023/05/07 09:30:31;;;;;;;2.43;1.73;;;23.50;99.90;;;;;;5033596;28;20267;-52
2023/05/07 09:32:59;;;;;;;3.20;1.70;;;23.60;99.90;;;;;;5033703;28;20300;-50
2023/05/07 09:35:27;;;;;;;4.40;2.23;;;23.70;99.90;;;;;;5033616;28;20185;-52
2023/05/07 09:37:58;;;;;;;2.10;1.90;;;23.80;99.90;;;;;;5033262;28;20739;-53
2023/05/07 09:40:29;;;;;;;3.27;2.27;;;23.80;99.90;;;;;;5033385;28;20216;-50
2023/05/07 09:42:55;;;;;;;3.10;1.77;;;23.90;99.90;;;;;;5033375;28;20199;-51
2023/05/07 09:45:31;;;;;;;3.77;1.97;;;23.90;99.90;;;;;;5015448;28;20207;-52
2023/05/07 09:47:58;;;;;;;3.27;2.10;;;23.90;99.90;;;;;;5033165;28;20196;-50
2023/05/07 09:50:27;;;;;;;4.60;2.37;;;24.00;99.90;;;;;;5015444;28;20287;-52
2023/05/07 09:52:55;;;;;;;1.80;1.70;;;24.00;99.90;;;;;;5036306;28;20210;-52
2023/05/07 09:55:21;;;;;;;2.90;1.83;;;24.00;99.90;;;;;;5037403;28;20185;-52
2023/05/07 09:57:50;;;;;;;3.33;2.17;;;24.20;99.90;;;;;;5037126;28;20181;-51
2023/05/07 10:00:19;;;;;;;2.93;2.00;;;24.20;99.90;;;;;;5037278;28;20236;-52
2023/05/07 10:02:51;;;;;;;3.10;1.60;;;24.40;99.90;;;;;;5036918;28;20258;-51
2023/05/07 10:05:18;;;;;;;2.13;1.47;;;24.40;99.90;;;;;;5037263;28;20150;-51
2023/05/07 10:07:44;;;;;;;1.43;1.33;;;24.50;99.90;;;;;;5036964;28;20248;-52
2023/05/07 10:10:11;;;;;;;1.33;1.20;;;24.60;99.90;;;;;;5019081;28;20662;-53
2023/05/07 10:12:38;;;;;;;2.50;1.57;;;24.60;99.90;;;;;;5037060;28;20196;-51
2023/05/07 10:15:09;;;;;;;3.33;1.60;;;24.60;99.90;;;;;;5036803;28;20176;-51
2023/05/07 10:17:39;;;;;;;2.97;1.40;;;24.40;99.90;;;;;;5036754;28;20191;-52
2023/05/07 10:20:06;;;;;;;1.83;1.40;;;24.40;99.90;;;;;;5036575;28;20200;-51
2023/05/07 10:22:42;;;;;;;2.40;1.47;;;24.70;99.90;;;;;;5036877;28;20568;-51
2023/05/07 10:25:31;;;;;;;2.63;1.20;;;24.80;99.90;;;;;;5036861;28;20159;-52
2023/05/07 10:28:03;;;;;;;1.60;1.20;;;25.10;99.90;;;;;;5036561;28;20169;-52
2023/05/07 10:30:40;;;;;;;1.50;1.40;;;25.10;99.90;;;;;;5036847;28;20169;-52
2023/05/07 10:33:10;;;;;;;1.63;1.20;;;25.20;99.90;;;;;;5036591;28;20192;-50
2023/05/07 10:35:42;;;;;;;2.47;1.10;;;25.20;99.90;;;;;;5036835;28;20203;-52
2023/05/07 10:38:08;;;;;;;2.43;1.33;;;25.20;99.90;;;;;;5036371;28;20196;-51
2023/05/07 10:40:34;;;;;;;1.77;1.03;;;25.30;99.90;;;;;;5036459;28;20209;-51
2023/05/07 10:43:05;;;;;;;2.60;1.40;;;25.30;99.90;;;;;;5036807;28;20235;-52
2023/05/07 10:45:31;;;;;;;2.53;1.50;;;25.00;99.90;;;;;;5036300;28;20589;-51
2023/05/07 10:48:10;;;;;;;4.03;1.80;;;25.10;99.90;;;;;;5036100;28;20193;-52
2023/05/07 10:50:36;;;;;;;3.07;1.33;;;25.10;99.90;;;;;;5036426;28;20287;-53
2023/05/07 10:53:17;;;;;;;2.43;1.20;;;25.10;99.90;;;;;;5036184;28;20205;-50
2023/05/07 10:56:29;;;;;;;3.13;1.37;;;25.00;99.90;;;;;;5019159;28;20181;-52
2023/05/07 10:58:54;;;;;;;3.10;1.20;;;24.80;99.90;;;;;;5031274;28;20185;-50
2023/05/07 11:01:50;;;;;;;1.83;1.10;;;24.80;99.90;;;;;;5036189;28;20339;-49
2023/05/07 11:04:17;;;;;;;3.20;1.00;;;24.80;99.90;;;;;;5027091;28;20224;-49
2023/05/07 11:07:08;;;;;;;2.20;1.20;;;24.80;99.90;;;;;;5036088;28;20180;-48
2023/05/07 11:09:52;;;;;;;2.07;1.20;;;24.70;99.90;;;;;;5035776;28;20203;-50
2023/05/07 11:12:40;;;;;;;3.00;1.07;;;24.60;99.90;;;;;;5035650;28;20192;-50
2023/05/07 11:15:10;;;;;;;3.90;1.30;;;24.40;99.90;;;;;;5036030;28;20189;-48
2023/05/07 11:17:56;;;;;;;3.07;1.20;;;24.40;99.90;;;;;;5018041;28;20264;-52
2023/05/07 11:20:49;;;;;;;3.70;1.00;;;24.30;99.90;;;;;;5035863;28;20250;-51
2023/05/07 11:23:33;;;;;;;1.70;1.20;;;24.30;99.90;;;;;;5035467;28;20212;-52
2023/05/07 11:26:09;;;;;;;2.30;1.13;;;24.40;99.90;;;;;;5035830;28;20161;-52
2023/05/07 11:28:41;;;;;;;2.10;1.27;;;24.60;99.90;;;;;;5035792;28;20255;-50
2023/05/07 11:31:07;;;;;;;6.67;1.30;;;24.70;99.90;;;;;;5035408;28;20606;-51
2023/05/07 11:33:34;;;;;;;2.00;1.47;;;24.80;99.90;;;;;;5035382;28;20193;-53
2023/05/07 11:36:00;;;;;;;3.97;1.50;;;24.70;99.90;;;;;;5035289;28;20176;-51
2023/05/07 11:38:26;;;;;;;2.20;1.63;;;24.40;99.90;;;;;;5035553;28;20195;-52
2023/05/07 11:40:56;;;;;;;2.03;1.60;;;24.00;99.90;;;;;;5035205;28;20287;-46
2023/05/07 11:43:22;;;;;;;3.17;1.50;;;23.70;99.90;;;;;;5035146;28;20672;-47
2023/05/07 11:45:48;;;;;;;2.77;1.50;;;23.60;99.90;;;;;;5035439;28;20207;-47
2023/05/07 11:48:15;;;;;;;1.53;1.20;;;23.40;99.90;;;;;;5017229;28;20228;-46
2023/05/07 11:50:59;;;;;;;2.00;1.50;;;23.30;99.90;;;;;;5035065;28;20185;-47
2023/05/07 11:53:25;;;;;;;2.23;1.60;;;23.20;99.90;;;;;;5035238;28;20193;-48
2023/05/07 11:55:57;;;;;;;3.07;1.17;;;23.10;99.90;;;;;;5035075;28;20207;-46
2023/05/07 11:58:25;;;;;;;1.77;1.60;;;23.10;99.90;;;;;;5034914;28;20216;-47
2023/05/07 12:00:52;;;;;;;2.67;1.50;;;23.00;99.90;;;;;;5040057;28;20208;-47
2023/05/07 12:03:18;;;;;;;4.83;1.30;;;23.10;99.90;;;;;;5042871;28;20208;-47
2023/05/07 12:05:45;;;;;;;2.87;1.67;;;23.00;99.90;;;;;;5042562;28;20192;-48
2023/05/07 12:08:17;;;;;;;1.67;1.47;;;23.00;99.90;;;;;;5035695;28;20185;-47
2023/05/07 12:10:44;;;;;;;2.90;1.60;;;23.00;99.90;;;;;;5035354;28;20260;-47
2023/05/07 12:13:19;;;;;;;3.27;1.87;;;23.00;99.90;;;;;;5034971;28;20227;-46
2023/05/07 12:15:45;;;;;;;2.13;1.40;;;23.00;99.90;;;;;;5033869;28;20177;-46
2023/05/07 12:18:12;;;;;;;2.27;1.47;;;22.90;99.90;;;;;;5034814;28;20195;-47
2023/05/07 12:20:38;;;;;;;2.50;1.60;;;22.90;99.90;;;;;;5035321;28;20208;-46
2023/05/07 12:23:04;;;;;;;3.60;1.70;;;22.90;99.90;;;;;;5035248;28;20209;-48
2023/05/07 12:25:38;;;;;;;2.53;1.70;;;22.80;99.90;;;;;;5017509;28;20187;-46
2023/05/07 12:28:05;;;;;;;3.67;2.00;;;22.80;99.90;;;;;;5034766;28;20557;-47
2023/05/07 12:30:40;;;;;;;2.87;1.63;;;22.90;99.90;;;;;;5034428;28;20212;-46
2023/05/07 12:33:05;;;;;;;1.80;1.30;;;22.90;99.90;;;;;;5034265;28;20310;-47
2023/05/07 12:35:36;;;;;;;4.40;1.70;;;22.80;99.90;;;;;;5034265;28;20528;-47
2023/05/07 12:38:17;;;;;;;2.47;1.53;;;22.70;99.90;;;;;;5132762;27;20931;-47
2023/05/07 12:40:50;;;;;;;2.27;1.70;;;22.70;99.90;;;;;;5131801;28;20241;-47